Terminal Aerodrome Forecast
Issued by NWS

Home | Current Version | Previous Version | Text Only | Print | Product List | Glossary On
Versions: 1 2 3 4 5 6 7 8 9 10 11 12 13 14 15 16 17 18 19 20 21 22 23 24 25
000
FTUS43 KDLH 281300 AAA
TAFHIB
TAF AMD
KHIB 281358Z 2814/2912 12012KT P6SM VCSH BKN100
     FM281700 16012G20KT P6SM VCSH BKN100
     FM281900 19014G25KT P6SM VCSH BKN100
     FM290200 18008KT P6SM -SHRA BKN100 WS020/21030KT=

USA.gov is the U.S. government's official web portal to all federal, state and local government web resources and services.